Country
Station

 

Weather  for  Northolt  -  United Kingdom    United Kingdom

  
5 °C (41 °F)
    
 
 

Current METAR for Northolt is :

EGWU 111850Z 12005KT CAVOK 05/04 Q1023 BLU NOSIG

 

This is a report for Northolt - United Kingdom.
 
The report was made 37 minutes ago, at 18:50 UTC .
The wind was blowing at a speed of 2.6 meters per second (5.8 miles per hour) from east/southeast (120°).
 
The temperature was 5 °C (41 °F), with a dew-point at 4 °C (39 °F).
The atmospheric pressure was 1023 hPa (30.21 inHg).
The relative humidity was 93.2%.
 
There were no clouds below 1500 meter (5000 feet) and no cumulonimbus clouds.
 
The overall visibility was greater than 10 kilometers (6.2 miles).
 

 
 
 
 

Country :   A   B   C   D   E   F   G   H   I   J   K   L   M   N   O   P   Q   R   S   T   U   V   W   Y   Z

 

Site Info  |  Disclaimer  |  Credits  |  Privacy
Contact us  |  Add to favorites
© 2013-2018 METARs - All rights reserved